Finly, Indiana
Current Conditions -  °F | °C
As of 9:53 AM on Wednesday 26 Nov 2014 (Local Time) from KGEZ Reporting Station
Overcast Overcast  
Wind Chill: -4°   Ceiling: 1800
Heat Index: -1°   Visibility: 10mi
Dew Point: -5°   Wind: 6mph
Humidity: 72%   Direction: 70°ENE
Pressure: 30.14"   Gusts: NA
Location:  39.71°N, 85.82°W
Report Text: KGEZ 261453Z AUTO 07005KT 10SM OVC018 M01/M05 A3014 RMK AO2 SLP216 T10061050 53005
Loading
Personal Weather Stations






























Interactive Weather Map New forecast layout! Learn more

10-Day Weather Forecast

Advertisements
Track Severe Weather on mobile